sensor_id;sensor_type;location;lat;lon;timestamp;temperature;humidity
52044;DHT22;38053;53.100;6.078;2022-08-21T00:01:58;14.70;99.90
52044;DHT22;38053;53.100;6.078;2022-08-21T00:04:24;14.70;99.90
52044;DHT22;38053;53.100;6.078;2022-08-21T00:06:51;14.60;99.90
52044;DHT22;38053;53.100;6.078;2022-08-21T00:09:18;14.60;99.90
52044;DHT22;38053;53.100;6.078;2022-08-21T00:11:44;14.60;99.90
52044;DHT22;38053;53.100;6.078;2022-08-21T00:14:11;14.50;99.90
52044;DHT22;38053;53.100;6.078;2022-08-21T00:16:37;14.50;99.90
52044;DHT22;38053;53.100;6.078;2022-08-21T00:19:04;14.50;99.90
52044;DHT22;38053;53.100;6.078;2022-08-21T00:21:32;14.40;99.90
52044;DHT22;38053;53.100;6.078;2022-08-21T00:23:57;14.40;99.90
52044;DHT22;38053;53.100;6.078;2022-08-21T00:26:23;14.40;99.90
52044;DHT22;38053;53.100;6.078;2022-08-21T00:28:49;14.40;99.90
52044;DHT22;38053;53.100;6.078;2022-08-21T00:31:16;14.40;99.90
52044;DHT22;38053;53.100;6.078;2022-08-21T00:33:41;14.40;99.90
52044;DHT22;38053;53.100;6.078;2022-08-21T00:36:07;14.40;99.90
52044;DHT22;38053;53.100;6.078;2022-08-21T00:38:33;14.30;99.90
52044;DHT22;38053;53.100;6.078;2022-08-21T00:41:02;14.30;99.90
52044;DHT22;38053;53.100;6.078;2022-08-21T00:43:32;14.30;99.90
52044;DHT22;38053;53.100;6.078;2022-08-21T00:45:58;14.30;99.90
52044;DHT22;38053;53.100;6.078;2022-08-21T00:48:25;14.20;99.90
52044;DHT22;38053;53.100;6.078;2022-08-21T00:51:13;14.20;99.90
52044;DHT22;38053;53.100;6.078;2022-08-21T00:53:44;14.20;99.90
52044;DHT22;38053;53.100;6.078;2022-08-21T00:56:12;14.10;99.90
52044;DHT22;38053;53.100;6.078;2022-08-21T00:58:39;14.10;99.90
52044;DHT22;38053;53.100;6.078;2022-08-21T01:01:08;14.10;99.90
52044;DHT22;38053;53.100;6.078;2022-08-21T01:03:35;14.10;99.90
52044;DHT22;38053;53.100;6.078;2022-08-21T01:06:01;14.00;99.90
52044;DHT22;38053;53.100;6.078;2022-08-21T01:08:27;14.00;99.90
52044;DHT22;38053;53.100;6.078;2022-08-21T01:10:55;14.00;99.90
52044;DHT22;38053;53.100;6.078;2022-08-21T01:13:23;14.00;99.90
52044;DHT22;38053;53.100;6.078;2022-08-21T01:15:51;14.00;99.90
52044;DHT22;38053;53.100;6.078;2022-08-21T01:18:19;14.00;99.90
52044;DHT22;38053;53.100;6.078;2022-08-21T01:21:14;13.90;99.90
52044;DHT22;38053;53.100;6.078;2022-08-21T01:23:42;13.90;99.90
52044;DHT22;38053;53.100;6.078;2022-08-21T01:26:09;13.90;99.90
52044;DHT22;38053;53.100;6.078;2022-08-21T01:28:43;13.80;99.90
52044;DHT22;38053;53.100;6.078;2022-08-21T01:31:11;13.80;99.90
52044;DHT22;38053;53.100;6.078;2022-08-21T01:33:38;13.80;99.90
52044;DHT22;38053;53.100;6.078;2022-08-21T01:36:04;13.80;99.90
52044;DHT22;38053;53.100;6.078;2022-08-21T01:38:30;13.80;99.90
52044;DHT22;38053;53.100;6.078;2022-08-21T01:40:56;13.80;99.90
52044;DHT22;38053;53.100;6.078;2022-08-21T01:43:22;13.80;99.90
52044;DHT22;38053;53.100;6.078;2022-08-21T01:45:47;13.80;99.90
52044;DHT22;38053;53.100;6.078;2022-08-21T01:48:13;13.80;99.90
52044;DHT22;38053;53.100;6.078;2022-08-21T01:50:39;13.80;99.90
52044;DHT22;38053;53.100;6.078;2022-08-21T01:53:04;13.70;99.90
52044;DHT22;38053;53.100;6.078;2022-08-21T01:55:30;13.70;99.90
52044;DHT22;38053;53.100;6.078;2022-08-21T01:57:57;13.70;99.90
52044;DHT22;38053;53.100;6.078;2022-08-21T02:00:24;13.70;99.90
52044;DHT22;38053;53.100;6.078;2022-08-21T02:02:51;13.70;99.90
52044;DHT22;38053;53.100;6.078;2022-08-21T02:05:17;13.70;99.90
52044;DHT22;38053;53.100;6.078;2022-08-21T02:07:52;13.70;99.90
52044;DHT22;38053;53.100;6.078;2022-08-21T02:10:23;13.70;99.90
52044;DHT22;38053;53.100;6.078;2022-08-21T02:12:49;13.70;99.90
52044;DHT22;38053;53.100;6.078;2022-08-21T02:15:15;13.70;99.90
52044;DHT22;38053;53.100;6.078;2022-08-21T02:17:47;13.70;99.90
52044;DHT22;38053;53.100;6.078;2022-08-21T02:20:38;13.70;99.90
52044;DHT22;38053;53.100;6.078;2022-08-21T02:23:05;13.70;99.90
52044;DHT22;38053;53.100;6.078;2022-08-21T02:25:31;13.70;99.90
52044;DHT22;38053;53.100;6.078;2022-08-21T02:27:58;13.70;99.90
52044;DHT22;38053;53.100;6.078;2022-08-21T02:30:27;13.70;99.90
52044;DHT22;38053;53.100;6.078;2022-08-21T02:32:53;13.70;99.90
52044;DHT22;38053;53.100;6.078;2022-08-21T02:35:19;13.70;99.90
52044;DHT22;38053;53.100;6.078;2022-08-21T02:37:49;13.70;99.90
52044;DHT22;38053;53.100;6.078;2022-08-21T02:40:16;13.70;99.90
52044;DHT22;38053;53.100;6.078;2022-08-21T02:42:42;13.70;99.90
52044;DHT22;38053;53.100;6.078;2022-08-21T02:45:10;13.80;99.90
52044;DHT22;38053;53.100;6.078;2022-08-21T02:47:36;13.80;99.90
52044;DHT22;38053;53.100;6.078;2022-08-21T02:50:04;13.80;99.90
52044;DHT22;38053;53.100;6.078;2022-08-21T02:52:30;13.80;99.90
52044;DHT22;38053;53.100;6.078;2022-08-21T02:54:56;13.90;99.90
52044;DHT22;38053;53.100;6.078;2022-08-21T02:57:21;13.90;99.90
52044;DHT22;38053;53.100;6.078;2022-08-21T02:59:47;13.90;99.90
52044;DHT22;38053;53.100;6.078;2022-08-21T03:02:13;13.90;99.90
52044;DHT22;38053;53.100;6.078;2022-08-21T03:04:39;13.90;99.90
52044;DHT22;38053;53.100;6.078;2022-08-21T03:07:05;14.00;99.90
52044;DHT22;38053;53.100;6.078;2022-08-21T03:09:30;14.00;99.90
52044;DHT22;38053;53.100;6.078;2022-08-21T03:11:56;14.00;99.90
52044;DHT22;38053;53.100;6.078;2022-08-21T03:14:23;14.00;99.90
52044;DHT22;38053;53.100;6.078;2022-08-21T03:16:48;14.10;99.90
52044;DHT22;38053;53.100;6.078;2022-08-21T03:19:15;14.10;99.90
52044;DHT22;38053;53.100;6.078;2022-08-21T03:21:41;14.10;99.90
52044;DHT22;38053;53.100;6.078;2022-08-21T03:24:07;14.10;99.90
52044;DHT22;38053;53.100;6.078;2022-08-21T03:26:32;14.10;99.90
52044;DHT22;38053;53.100;6.078;2022-08-21T03:28:58;14.10;99.90
52044;DHT22;38053;53.100;6.078;2022-08-21T03:31:24;14.10;99.90
52044;DHT22;38053;53.100;6.078;2022-08-21T03:33:54;14.10;99.90
52044;DHT22;38053;53.100;6.078;2022-08-21T03:36:20;14.10;99.90
52044;DHT22;38053;53.100;6.078;2022-08-21T03:38:46;14.10;99.90
52044;DHT22;38053;53.100;6.078;2022-08-21T03:41:12;14.10;99.90
52044;DHT22;38053;53.100;6.078;2022-08-21T03:43:38;14.10;99.90
52044;DHT22;38053;53.100;6.078;2022-08-21T03:46:04;14.10;99.90
52044;DHT22;38053;53.100;6.078;2022-08-21T03:48:31;14.10;99.90
52044;DHT22;38053;53.100;6.078;2022-08-21T03:50:57;14.10;99.90
52044;DHT22;38053;53.100;6.078;2022-08-21T03:53:22;14.00;99.90
52044;DHT22;38053;53.100;6.078;2022-08-21T03:55:50;14.00;99.90
52044;DHT22;38053;53.100;6.078;2022-08-21T03:58:20;14.00;99.90
52044;DHT22;38053;53.100;6.078;2022-08-21T04:00:48;14.00;99.90
52044;DHT22;38053;53.100;6.078;2022-08-21T04:03:15;13.90;99.90
52044;DHT22;38053;53.100;6.078;2022-08-21T04:05:41;13.90;99.90
52044;DHT22;38053;53.100;6.078;2022-08-21T04:08:07;13.90;99.90
52044;DHT22;38053;53.100;6.078;2022-08-21T04:10:36;13.90;99.90
52044;DHT22;38053;53.100;6.078;2022-08-21T04:13:02;13.90;99.90
52044;DHT22;38053;53.100;6.078;2022-08-21T04:15:28;13.90;99.90
52044;DHT22;38053;53.100;6.078;2022-08-21T04:17:54;13.90;99.90
52044;DHT22;38053;53.100;6.078;2022-08-21T04:20:21;13.90;99.90
52044;DHT22;38053;53.100;6.078;2022-08-21T04:22:47;13.90;99.90
52044;DHT22;38053;53.100;6.078;2022-08-21T04:25:15;13.80;99.90
52044;DHT22;38053;53.100;6.078;2022-08-21T04:27:41;13.80;99.90
52044;DHT22;38053;53.100;6.078;2022-08-21T04:30:08;13.80;99.90
52044;DHT22;38053;53.100;6.078;2022-08-21T04:32:35;13.90;99.90
52044;DHT22;38053;53.100;6.078;2022-08-21T04:35:06;13.90;99.90
52044;DHT22;38053;53.100;6.078;2022-08-21T04:37:34;13.90;99.90
52044;DHT22;38053;53.100;6.078;2022-08-21T04:39:59;13.90;99.90
52044;DHT22;38053;53.100;6.078;2022-08-21T04:42:26;13.90;99.90
52044;DHT22;38053;53.100;6.078;2022-08-21T04:44:53;13.90;99.90
52044;DHT22;38053;53.100;6.078;2022-08-21T04:47:20;13.90;99.90
52044;DHT22;38053;53.100;6.078;2022-08-21T04:49:46;14.00;99.90
52044;DHT22;38053;53.100;6.078;2022-08-21T04:52:13;14.00;99.90
52044;DHT22;38053;53.100;6.078;2022-08-21T04:54:41;14.00;99.90
52044;DHT22;38053;53.100;6.078;2022-08-21T04:57:09;14.10;99.90
52044;DHT22;38053;53.100;6.078;2022-08-21T04:59:40;14.10;99.90
52044;DHT22;38053;53.100;6.078;2022-08-21T05:02:09;14.20;99.90
52044;DHT22;38053;53.100;6.078;2022-08-21T05:04:39;14.20;99.90
52044;DHT22;38053;53.100;6.078;2022-08-21T05:07:10;14.20;99.90
52044;DHT22;38053;53.100;6.078;2022-08-21T05:09:38;14.30;99.90
52044;DHT22;38053;53.100;6.078;2022-08-21T05:12:04;14.30;99.90
52044;DHT22;38053;53.100;6.078;2022-08-21T05:14:30;14.30;99.90
52044;DHT22;38053;53.100;6.078;2022-08-21T05:16:56;14.40;99.90
52044;DHT22;38053;53.100;6.078;2022-08-21T05:19:21;14.40;99.90
52044;DHT22;38053;53.100;6.078;2022-08-21T05:21:47;14.50;99.90
52044;DHT22;38053;53.100;6.078;2022-08-21T05:24:14;14.50;99.90
52044;DHT22;38053;53.100;6.078;2022-08-21T05:26:40;14.50;99.90
52044;DHT22;38053;53.100;6.078;2022-08-21T05:29:06;14.60;99.90
52044;DHT22;38053;53.100;6.078;2022-08-21T05:31:31;14.60;99.90
52044;DHT22;38053;53.100;6.078;2022-08-21T05:33:57;14.60;99.90
52044;DHT22;38053;53.100;6.078;2022-08-21T05:36:23;14.70;99.90
52044;DHT22;38053;53.100;6.078;2022-08-21T05:38:49;14.70;99.90
52044;DHT22;38053;53.100;6.078;2022-08-21T05:41:15;14.70;99.90
52044;DHT22;38053;53.100;6.078;2022-08-21T05:43:41;14.80;99.90
52044;DHT22;38053;53.100;6.078;2022-08-21T05:46:07;14.80;99.90
52044;DHT22;38053;53.100;6.078;2022-08-21T05:48:35;14.80;99.90
52044;DHT22;38053;53.100;6.078;2022-08-21T05:51:13;14.90;99.90
52044;DHT22;38053;53.100;6.078;2022-08-21T05:53:40;14.90;99.90
52044;DHT22;38053;53.100;6.078;2022-08-21T05:56:08;15.00;99.90
52044;DHT22;38053;53.100;6.078;2022-08-21T05:58:34;15.00;99.90
52044;DHT22;38053;53.100;6.078;2022-08-21T06:01:00;15.00;99.90
52044;DHT22;38053;53.100;6.078;2022-08-21T06:03:30;15.10;99.90
52044;DHT22;38053;53.100;6.078;2022-08-21T06:05:57;15.20;99.90
52044;DHT22;38053;53.100;6.078;2022-08-21T06:08:25;15.20;99.90
52044;DHT22;38053;53.100;6.078;2022-08-21T06:10:52;15.20;99.90
52044;DHT22;38053;53.100;6.078;2022-08-21T06:13:18;15.30;99.90
52044;DHT22;38053;53.100;6.078;2022-08-21T06:15:44;15.30;99.90
52044;DHT22;38053;53.100;6.078;2022-08-21T06:18:11;15.30;99.90
52044;DHT22;38053;53.100;6.078;2022-08-21T06:20:37;15.40;99.90
52044;DHT22;38053;53.100;6.078;2022-08-21T06:23:03;15.50;99.90
52044;DHT22;38053;53.100;6.078;2022-08-21T06:25:30;15.50;99.90
52044;DHT22;38053;53.100;6.078;2022-08-21T06:28:07;15.60;99.90
52044;DHT22;38053;53.100;6.078;2022-08-21T06:30:34;15.70;99.90
52044;DHT22;38053;53.100;6.078;2022-08-21T06:33:01;15.70;99.90
52044;DHT22;38053;53.100;6.078;2022-08-21T06:35:27;15.80;99.90
52044;DHT22;38053;53.100;6.078;2022-08-21T06:37:55;15.90;99.90
52044;DHT22;38053;53.100;6.078;2022-08-21T06:40:20;16.10;99.90
52044;DHT22;38053;53.100;6.078;2022-08-21T06:42:46;16.30;99.90
52044;DHT22;38053;53.100;6.078;2022-08-21T06:45:12;16.50;99.90
52044;DHT22;38053;53.100;6.078;2022-08-21T06:47:38;16.70;99.90
52044;DHT22;38053;53.100;6.078;2022-08-21T06:50:04;16.90;99.90
52044;DHT22;38053;53.100;6.078;2022-08-21T06:52:33;17.00;99.90
52044;DHT22;38053;53.100;6.078;2022-08-21T06:54:59;17.10;99.90
52044;DHT22;38053;53.100;6.078;2022-08-21T06:57:25;17.10;99.90
52044;DHT22;38053;53.100;6.078;2022-08-21T06:59:51;17.10;99.90
52044;DHT22;38053;53.100;6.078;2022-08-21T07:02:17;17.10;99.90
52044;DHT22;38053;53.100;6.078;2022-08-21T07:04:43;17.10;99.90
52044;DHT22;38053;53.100;6.078;2022-08-21T07:07:09;17.10;99.90
52044;DHT22;38053;53.100;6.078;2022-08-21T07:09:35;17.20;99.90
52044;DHT22;38053;53.100;6.078;2022-08-21T07:12:02;17.30;99.90
52044;DHT22;38053;53.100;6.078;2022-08-21T07:14:28;17.40;99.90
52044;DHT22;38053;53.100;6.078;2022-08-21T07:17:05;17.40;99.90
52044;DHT22;38053;53.100;6.078;2022-08-21T07:19:30;17.50;99.90
52044;DHT22;38053;53.100;6.078;2022-08-21T07:22:00;17.60;99.90
52044;DHT22;38053;53.100;6.078;2022-08-21T07:24:26;17.60;99.90
52044;DHT22;38053;53.100;6.078;2022-08-21T07:26:51;17.70;99.90
52044;DHT22;38053;53.100;6.078;2022-08-21T07:29:17;17.80;99.90
52044;DHT22;38053;53.100;6.078;2022-08-21T07:31:44;17.90;99.90
52044;DHT22;38053;53.100;6.078;2022-08-21T07:34:10;17.90;99.90
52044;DHT22;38053;53.100;6.078;2022-08-21T07:36:35;17.90;99.90
52044;DHT22;38053;53.100;6.078;2022-08-21T07:39:01;17.90;99.90
52044;DHT22;38053;53.100;6.078;2022-08-21T07:41:28;18.00;99.90
52044;DHT22;38053;53.100;6.078;2022-08-21T07:43:58;18.10;99.90
52044;DHT22;38053;53.100;6.078;2022-08-21T07:46:24;18.10;99.90
52044;DHT22;38053;53.100;6.078;2022-08-21T07:48:50;18.20;99.90
52044;DHT22;38053;53.100;6.078;2022-08-21T07:51:19;18.30;99.90
52044;DHT22;38053;53.100;6.078;2022-08-21T07:53:53;18.30;99.90
52044;DHT22;38053;53.100;6.078;2022-08-21T07:56:20;18.40;99.90
52044;DHT22;38053;53.100;6.078;2022-08-21T07:58:47;18.40;99.90
52044;DHT22;38053;53.100;6.078;2022-08-21T08:01:13;18.50;99.90
52044;DHT22;38053;53.100;6.078;2022-08-21T08:03:39;18.60;99.90
52044;DHT22;38053;53.100;6.078;2022-08-21T08:06:08;18.70;99.90
52044;DHT22;38053;53.100;6.078;2022-08-21T08:08:41;18.80;99.90
52044;DHT22;38053;53.100;6.078;2022-08-21T08:11:08;18.90;99.90
52044;DHT22;38053;53.100;6.078;2022-08-21T08:13:46;19.00;99.90
52044;DHT22;38053;53.100;6.078;2022-08-21T08:16:12;19.10;99.90
52044;DHT22;38053;53.100;6.078;2022-08-21T08:18:38;19.20;99.90
52044;DHT22;38053;53.100;6.078;2022-08-21T08:21:04;19.30;99.90
52044;DHT22;38053;53.100;6.078;2022-08-21T08:23:31;19.30;99.90
52044;DHT22;38053;53.100;6.078;2022-08-21T08:25:58;19.40;99.90
52044;DHT22;38053;53.100;6.078;2022-08-21T08:28:23;19.50;99.90
52044;DHT22;38053;53.100;6.078;2022-08-21T08:30:49;19.60;99.90
52044;DHT22;38053;53.100;6.078;2022-08-21T08:33:15;19.70;99.90
52044;DHT22;38053;53.100;6.078;2022-08-21T08:35:44;19.80;99.90
52044;DHT22;38053;53.100;6.078;2022-08-21T08:38:10;19.90;99.90
52044;DHT22;38053;53.100;6.078;2022-08-21T08:40:47;20.00;99.90
52044;DHT22;38053;53.100;6.078;2022-08-21T08:43:17;20.00;99.90
52044;DHT22;38053;53.100;6.078;2022-08-21T08:45:46;20.10;99.90
52044;DHT22;38053;53.100;6.078;2022-08-21T08:48:22;20.20;99.90
52044;DHT22;38053;53.100;6.078;2022-08-21T08:50:56;20.30;99.90
52044;DHT22;38053;53.100;6.078;2022-08-21T08:53:33;20.40;99.90
52044;DHT22;38053;53.100;6.078;2022-08-21T08:56:04;20.50;99.90
52044;DHT22;38053;53.100;6.078;2022-08-21T08:58:34;20.70;99.90
52044;DHT22;38053;53.100;6.078;2022-08-21T09:01:05;20.90;99.90
52044;DHT22;38053;53.100;6.078;2022-08-21T09:03:32;21.00;99.90
52044;DHT22;38053;53.100;6.078;2022-08-21T09:08:54;21.20;99.90
52044;DHT22;38053;53.100;6.078;2022-08-21T09:22:03;21.80;99.90
52044;DHT22;38053;53.100;6.078;2022-08-21T09:27:14;22.20;99.90
52044;DHT22;38053;53.100;6.078;2022-08-21T09:29:44;22.20;99.90
52044;DHT22;38053;53.100;6.078;2022-08-21T09:32:29;22.30;99.90
52044;DHT22;38053;53.100;6.078;2022-08-21T09:34:58;22.30;99.90
52044;DHT22;38053;53.100;6.078;2022-08-21T09:37:25;22.20;99.90
52044;DHT22;38053;53.100;6.078;2022-08-21T09:39:51;22.20;99.90
52044;DHT22;38053;53.100;6.078;2022-08-21T09:42:27;22.40;99.90
52044;DHT22;38053;53.100;6.078;2022-08-21T09:45:25;22.70;99.90
52044;DHT22;38053;53.100;6.078;2022-08-21T09:47:51;23.00;99.90
52044;DHT22;38053;53.100;6.078;2022-08-21T09:50:24;23.10;99.90
52044;DHT22;38053;53.100;6.078;2022-08-21T09:52:58;23.00;99.90
52044;DHT22;38053;53.100;6.078;2022-08-21T09:55:57;22.90;99.90
52044;DHT22;38053;53.100;6.078;2022-08-21T09:58:46;22.60;99.90
52044;DHT22;38053;53.100;6.078;2022-08-21T10:01:18;22.40;99.90
52044;DHT22;38053;53.100;6.078;2022-08-21T10:03:45;22.50;99.90
52044;DHT22;38053;53.100;6.078;2022-08-21T10:06:22;22.70;99.90
52044;DHT22;38053;53.100;6.078;2022-08-21T10:08:48;22.60;99.90
52044;DHT22;38053;53.100;6.078;2022-08-21T10:11:16;22.40;99.90
52044;DHT22;38053;53.100;6.078;2022-08-21T10:14:07;22.20;99.90
52044;DHT22;38053;53.100;6.078;2022-08-21T10:24:33;22.00;99.90
52044;DHT22;38053;53.100;6.078;2022-08-21T10:29:39;22.50;99.90
52044;DHT22;38053;53.100;6.078;2022-08-21T10:35:14;22.70;99.90
52044;DHT22;38053;53.100;6.078;2022-08-21T10:40:25;23.20;99.90
52044;DHT22;38053;53.100;6.078;2022-08-21T10:48:49;23.30;99.90
52044;DHT22;38053;53.100;6.078;2022-08-21T10:56:50;22.60;99.90
52044;DHT22;38053;53.100;6.078;2022-08-21T10:59:30;22.50;99.90
52044;DHT22;38053;53.100;6.078;2022-08-21T11:04:34;22.40;99.90
52044;DHT22;38053;53.100;6.078;2022-08-21T11:07:21;22.40;99.90
52044;DHT22;38053;53.100;6.078;2022-08-21T11:09:48;22.60;99.90
52044;DHT22;38053;53.100;6.078;2022-08-21T11:15:05;23.50;99.90
52044;DHT22;38053;53.100;6.078;2022-08-21T11:23:44;23.90;99.90
52044;DHT22;38053;53.100;6.078;2022-08-21T11:26:15;23.50;99.90
52044;DHT22;38053;53.100;6.078;2022-08-21T11:28:51;23.20;99.90
52044;DHT22;38053;53.100;6.078;2022-08-21T11:34:53;22.70;99.90
52044;DHT22;38053;53.100;6.078;2022-08-21T11:38:03;22.50;99.90
52044;DHT22;38053;53.100;6.078;2022-08-21T11:45:52;23.30;99.90
52044;DHT22;38053;53.100;6.078;2022-08-21T11:50:55;24.50;99.90
52044;DHT22;38053;53.100;6.078;2022-08-21T11:56:04;24.50;99.90
52044;DHT22;38053;53.100;6.078;2022-08-21T11:58:37;24.40;99.90
52044;DHT22;38053;53.100;6.078;2022-08-21T12:01:16;24.20;99.90
52044;DHT22;38053;53.100;6.078;2022-08-21T12:06:42;23.90;99.90
52044;DHT22;38053;53.100;6.078;2022-08-21T12:09:24;23.80;99.90
52044;DHT22;38053;53.100;6.078;2022-08-21T12:18:01;23.50;99.90
52044;DHT22;38053;53.100;6.078;2022-08-21T12:28:28;23.40;99.90
52044;DHT22;38053;53.100;6.078;2022-08-21T12:30:56;23.50;99.90
52044;DHT22;38053;53.100;6.078;2022-08-21T12:33:37;23.60;99.90
52044;DHT22;38053;53.100;6.078;2022-08-21T12:36:17;23.60;99.90
52044;DHT22;38053;53.100;6.078;2022-08-21T12:38:59;23.50;99.90
52044;DHT22;38053;53.100;6.078;2022-08-21T12:41:30;23.30;99.90
52044;DHT22;38053;53.100;6.078;2022-08-21T12:44:07;23.30;99.90
52044;DHT22;38053;53.100;6.078;2022-08-21T12:46:46;23.20;99.90
52044;DHT22;38053;53.100;6.078;2022-08-21T12:49:40;23.10;99.90
52044;DHT22;38053;53.100;6.078;2022-08-21T12:52:28;23.00;99.90
52044;DHT22;38053;53.100;6.078;2022-08-21T12:54:54;23.10;99.90
52044;DHT22;38053;53.100;6.078;2022-08-21T12:57:28;23.10;99.90
52044;DHT22;38053;53.100;6.078;2022-08-21T13:00:03;23.10;99.90
52044;DHT22;38053;53.100;6.078;2022-08-21T13:02:35;23.20;99.90
52044;DHT22;38053;53.100;6.078;2022-08-21T13:05:05;23.30;99.90
52044;DHT22;38053;53.100;6.078;2022-08-21T13:07:34;23.30;99.90
52044;DHT22;38053;53.100;6.078;2022-08-21T13:10:07;23.30;99.90
52044;DHT22;38053;53.100;6.078;2022-08-21T13:12:41;23.30;99.90
52044;DHT22;38053;53.100;6.078;2022-08-21T13:15:07;23.50;99.90
52044;DHT22;38053;53.100;6.078;2022-08-21T13:17:36;23.60;99.90
52044;DHT22;38053;53.100;6.078;2022-08-21T13:20:07;23.50;99.90
52044;DHT22;38053;53.100;6.078;2022-08-21T13:22:41;23.50;99.90
52044;DHT22;38053;53.100;6.078;2022-08-21T13:25:10;23.60;99.90
52044;DHT22;38053;53.100;6.078;2022-08-21T13:27:36;23.60;99.90
52044;DHT22;38053;53.100;6.078;2022-08-21T13:32:37;24.20;99.90
52044;DHT22;38053;53.100;6.078;2022-08-21T13:35:12;24.30;99.90
52044;DHT22;38053;53.100;6.078;2022-08-21T13:37:41;24.50;99.90
52044;DHT22;38053;53.100;6.078;2022-08-21T13:40:10;24.60;99.90
52044;DHT22;38053;53.100;6.078;2022-08-21T13:42:40;24.50;99.90
52044;DHT22;38053;53.100;6.078;2022-08-21T13:45:32;25.00;99.90
52044;DHT22;38053;53.100;6.078;2022-08-21T13:48:00;25.60;99.90
52044;DHT22;38053;53.100;6.078;2022-08-21T13:50:26;25.90;99.90
52044;DHT22;38053;53.100;6.078;2022-08-21T13:53:22;25.70;99.90
52044;DHT22;38053;53.100;6.078;2022-08-21T13:55:48;26.00;99.90
52044;DHT22;38053;53.100;6.078;2022-08-21T13:58:41;26.20;99.90
52044;DHT22;38053;53.100;6.078;2022-08-21T14:01:31;26.10;98.70
52044;DHT22;38053;53.100;6.078;2022-08-21T14:04:05;25.80;98.50
52044;DHT22;38053;53.100;6.078;2022-08-21T14:06:35;25.70;98.80
52044;DHT22;38053;53.100;6.078;2022-08-21T14:09:12;25.50;98.80
52044;DHT22;38053;53.100;6.078;2022-08-21T14:11:40;25.30;99.00
52044;DHT22;38053;53.100;6.078;2022-08-21T14:14:28;25.30;99.20
52044;DHT22;38053;53.100;6.078;2022-08-21T14:16:58;25.30;99.40
52044;DHT22;38053;53.100;6.078;2022-08-21T14:19:46;25.20;99.90
52044;DHT22;38053;53.100;6.078;2022-08-21T14:27:32;25.10;99.00
52044;DHT22;38053;53.100;6.078;2022-08-21T14:30:02;25.20;98.90
52044;DHT22;38053;53.100;6.078;2022-08-21T14:32:29;25.30;98.80
52044;DHT22;38053;53.100;6.078;2022-08-21T14:34:56;25.50;99.20
52044;DHT22;38053;53.100;6.078;2022-08-21T14:37:23;25.90;99.30
52044;DHT22;38053;53.100;6.078;2022-08-21T14:39:49;26.20;98.10
52044;DHT22;38053;53.100;6.078;2022-08-21T14:42:14;26.20;97.60
52044;DHT22;38053;53.100;6.078;2022-08-21T14:44:40;26.30;98.00
52044;DHT22;38053;53.100;6.078;2022-08-21T14:47:07;26.10;98.20
52044;DHT22;38053;53.100;6.078;2022-08-21T14:49:33;25.90;98.20
52044;DHT22;38053;53.100;6.078;2022-08-21T14:51:58;25.70;98.20
52044;DHT22;38053;53.100;6.078;2022-08-21T14:54:28;25.40;98.50
52044;DHT22;38053;53.100;6.078;2022-08-21T14:56:54;25.20;98.90
52044;DHT22;38053;53.100;6.078;2022-08-21T14:59:21;25.00;98.70
52044;DHT22;38053;53.100;6.078;2022-08-21T15:01:47;25.00;99.00
52044;DHT22;38053;53.100;6.078;2022-08-21T15:04:13;24.90;99.10
52044;DHT22;38053;53.100;6.078;2022-08-21T15:06:42;24.90;99.30
52044;DHT22;38053;53.100;6.078;2022-08-21T15:09:11;24.90;98.90
52044;DHT22;38053;53.100;6.078;2022-08-21T15:11:36;24.80;98.10
52044;DHT22;38053;53.100;6.078;2022-08-21T15:14:06;24.70;98.10
52044;DHT22;38053;53.100;6.078;2022-08-21T15:16:33;24.70;97.60
52044;DHT22;38053;53.100;6.078;2022-08-21T15:18:59;24.50;98.30
52044;DHT22;38053;53.100;6.078;2022-08-21T15:21:25;24.40;99.10
52044;DHT22;38053;53.100;6.078;2022-08-21T15:23:51;24.40;99.40
52044;DHT22;38053;53.100;6.078;2022-08-21T15:26:16;24.30;99.70
52044;DHT22;38053;53.100;6.078;2022-08-21T15:28:42;24.30;99.90
52044;DHT22;38053;53.100;6.078;2022-08-21T15:31:08;24.30;99.90
52044;DHT22;38053;53.100;6.078;2022-08-21T15:33:34;24.40;99.90
52044;DHT22;38053;53.100;6.078;2022-08-21T15:35:59;24.40;99.90
52044;DHT22;38053;53.100;6.078;2022-08-21T15:38:25;24.30;99.90
52044;DHT22;38053;53.100;6.078;2022-08-21T15:40:51;24.30;99.90
52044;DHT22;38053;53.100;6.078;2022-08-21T15:43:25;24.20;99.90
52044;DHT22;38053;53.100;6.078;2022-08-21T15:45:51;24.10;99.90
52044;DHT22;38053;53.100;6.078;2022-08-21T15:48:17;24.00;99.90
52044;DHT22;38053;53.100;6.078;2022-08-21T15:50:43;23.80;99.90
52044;DHT22;38053;53.100;6.078;2022-08-21T15:53:09;23.70;99.90
52044;DHT22;38053;53.100;6.078;2022-08-21T15:55:34;23.70;99.90
52044;DHT22;38053;53.100;6.078;2022-08-21T15:58:00;23.60;99.90
52044;DHT22;38053;53.100;6.078;2022-08-21T16:00:27;23.60;99.90
52044;DHT22;38053;53.100;6.078;2022-08-21T16:02:56;23.70;99.90
52044;DHT22;38053;53.100;6.078;2022-08-21T16:05:23;23.60;99.90
52044;DHT22;38053;53.100;6.078;2022-08-21T16:07:50;23.50;99.90
52044;DHT22;38053;53.100;6.078;2022-08-21T16:10:19;23.50;99.90
52044;DHT22;38053;53.100;6.078;2022-08-21T16:12:48;23.40;99.90
52044;DHT22;38053;53.100;6.078;2022-08-21T16:15:15;23.40;99.90
52044;DHT22;38053;53.100;6.078;2022-08-21T16:17:44;23.40;99.90
52044;DHT22;38053;53.100;6.078;2022-08-21T16:20:15;23.50;99.90
52044;DHT22;38053;53.100;6.078;2022-08-21T16:22:42;23.50;99.90
52044;DHT22;38053;53.100;6.078;2022-08-21T16:25:08;23.50;99.90
52044;DHT22;38053;53.100;6.078;2022-08-21T16:27:34;23.70;99.90
52044;DHT22;38053;53.100;6.078;2022-08-21T16:30:01;23.60;99.90
52044;DHT22;38053;53.100;6.078;2022-08-21T16:32:27;23.60;99.90
52044;DHT22;38053;53.100;6.078;2022-08-21T16:34:54;23.70;99.90
52044;DHT22;38053;53.100;6.078;2022-08-21T16:37:20;23.80;99.90
52044;DHT22;38053;53.100;6.078;2022-08-21T16:39:47;24.00;99.90
52044;DHT22;38053;53.100;6.078;2022-08-21T16:42:16;24.30;99.90
52044;DHT22;38053;53.100;6.078;2022-08-21T16:44:43;24.70;99.90
52044;DHT22;38053;53.100;6.078;2022-08-21T16:47:09;24.90;99.40
52044;DHT22;38053;53.100;6.078;2022-08-21T16:49:35;25.10;99.30
52044;DHT22;38053;53.100;6.078;2022-08-21T16:52:02;25.30;99.10
52044;DHT22;38053;53.100;6.078;2022-08-21T16:54:27;25.50;98.50
52044;DHT22;38053;53.100;6.078;2022-08-21T16:56:55;25.60;98.30
52044;DHT22;38053;53.100;6.078;2022-08-21T16:59:21;25.50;97.90
52044;DHT22;38053;53.100;6.078;2022-08-21T17:01:47;25.20;98.00
52044;DHT22;38053;53.100;6.078;2022-08-21T17:04:13;24.70;98.20
52044;DHT22;38053;53.100;6.078;2022-08-21T17:06:39;24.40;98.40
52044;DHT22;38053;53.100;6.078;2022-08-21T17:09:04;24.00;98.80
52044;DHT22;38053;53.100;6.078;2022-08-21T17:11:39;23.70;99.10
52044;DHT22;38053;53.100;6.078;2022-08-21T17:14:08;23.40;99.30
52044;DHT22;38053;53.100;6.078;2022-08-21T17:16:36;23.20;99.50